createdAt,value
2019-04-30T00:00:46.066Z,14.49
2019-04-30T00:03:19.729Z,14.61
2019-04-30T00:05:49.312Z,14.48
2019-04-30T00:08:19.234Z,14.50
2019-04-30T00:10:48.003Z,14.35
2019-04-30T00:13:20.677Z,14.36
2019-04-30T00:15:47.869Z,14.45
2019-04-30T00:18:17.533Z,14.44
2019-04-30T00:20:47.057Z,14.30
2019-04-30T00:23:17.964Z,14.25
2019-04-30T00:25:46.642Z,14.19
2019-04-30T00:28:15.617Z,14.16
2019-04-30T00:30:47.701Z,14.24
2019-04-30T00:33:21.927Z,14.18
2019-04-30T00:35:45.444Z,14.28
2019-04-30T00:38:15.102Z,14.27
2019-04-30T00:40:45.092Z,14.26
2019-04-30T00:43:15.470Z,14.33
2019-04-30T00:45:47.407Z,14.29
2019-04-30T00:48:19.378Z,14.29
2019-04-30T00:50:46.033Z,14.29
2019-04-30T00:53:16.503Z,14.28
2019-04-30T00:55:48.447Z,14.35
2019-04-30T00:58:17.734Z,14.47
2019-04-30T01:01:08.081Z,14.60
2019-04-30T01:03:39.488Z,14.58
2019-04-30T01:06:06.910Z,14.62
2019-04-30T01:08:35.916Z,14.50
2019-04-30T01:11:09.368Z,13.93
2019-04-30T01:13:36.465Z,13.96
2019-04-30T01:16:05.606Z,13.65
2019-04-30T01:18:34.252Z,13.60
2019-04-30T01:21:06.995Z,13.45
2019-04-30T01:23:33.297Z,13.37
2019-04-30T01:26:02.135Z,13.22
2019-04-30T01:28:30.773Z,13.18
2019-04-30T01:31:01.963Z,13.24
2019-04-30T01:33:34.621Z,13.11
2019-04-30T01:36:04.146Z,13.00
2019-04-30T01:38:31.834Z,12.95
2019-04-30T01:41:00.527Z,12.87
2019-04-30T01:43:33.155Z,12.72
2019-04-30T01:46:01.786Z,12.70
2019-04-30T01:48:29.960Z,12.70
2019-04-30T01:50:58.659Z,12.80
2019-04-30T01:53:28.924Z,12.77
2019-04-30T01:56:15.291Z,12.81
2019-04-30T01:58:45.588Z,12.50
2019-04-30T02:01:21.673Z,12.56
2019-04-30T02:03:50.305Z,12.53
2019-04-30T02:06:19.672Z,12.45
2019-04-30T02:08:49.373Z,12.46
2019-04-30T02:11:18.971Z,12.36
2019-04-30T02:13:49.176Z,12.52
2019-04-30T02:16:20.996Z,12.46
2019-04-30T02:18:49.641Z,12.45
2019-04-30T02:21:19.482Z,12.37
2019-04-30T02:23:49.323Z,12.46
2019-04-30T02:26:18.834Z,12.50
2019-04-30T02:28:49.503Z,12.44
2019-04-30T02:31:19.478Z,12.45
2019-04-30T02:33:50.474Z,12.26
2019-04-30T02:36:29.828Z,12.40
2019-04-30T02:38:59.506Z,12.38
2019-04-30T02:41:29.883Z,12.54
2019-04-30T02:44:00.950Z,12.68
2019-04-30T02:46:32.300Z,12.42
2019-04-30T02:49:01.286Z,12.40
2019-04-30T02:51:32.950Z,12.18
2019-04-30T02:54:13.732Z,12.39
2019-04-30T02:56:44.077Z,12.27
2019-04-30T02:59:12.764Z,12.06
2019-04-30T03:01:41.372Z,12.14
2019-04-30T03:04:10.264Z,12.13
2019-04-30T03:06:40.158Z,12.21
2019-04-30T03:09:10.346Z,12.20
2019-04-30T03:11:40.531Z,12.19
2019-04-30T03:14:10.590Z,12.27
2019-04-30T03:16:43.988Z,12.22
2019-04-30T03:19:23.496Z,12.37
2019-04-30T03:21:53.849Z,12.34
2019-04-30T03:24:22.577Z,12.32
2019-04-30T03:26:51.199Z,12.45
2019-04-30T03:29:23.772Z,12.35
2019-04-30T03:31:52.257Z,12.54
2019-04-30T03:34:25.590Z,12.41
2019-04-30T03:36:51.100Z,12.44
2019-04-30T03:39:20.087Z,12.41
2019-04-30T03:41:50.176Z,12.40
2019-04-30T03:44:25.489Z,12.26
2019-04-30T03:46:49.912Z,12.38
2019-04-30T03:49:20.176Z,12.37
2019-04-30T03:51:49.926Z,12.16
2019-04-30T03:54:19.514Z,12.46
2019-04-30T03:56:50.185Z,12.55
2019-04-30T03:59:19.898Z,12.60
2019-04-30T04:02:02.788Z,12.71
2019-04-30T04:04:39.669Z,12.59
2019-04-30T04:07:22.439Z,12.42
2019-04-30T04:09:59.839Z,12.47
2019-04-30T04:12:30.412Z,12.55
2019-04-30T04:15:03.277Z,12.61
2019-04-30T04:17:31.478Z,12.77
2019-04-30T04:20:00.081Z,12.93
2019-04-30T04:22:30.694Z,13.00
2019-04-30T04:25:00.115Z,13.23
2019-04-30T04:27:30.305Z,13.34
2019-04-30T04:30:01.030Z,13.21
2019-04-30T04:32:30.813Z,12.97
2019-04-30T04:35:00.515Z,13.10
2019-04-30T04:37:30.238Z,13.32
2019-04-30T04:39:59.781Z,13.41
2019-04-30T04:42:32.428Z,13.50
2019-04-30T04:44:59.516Z,14.13
2019-04-30T04:47:30.765Z,14.60
2019-04-30T04:50:00.718Z,15.12
2019-04-30T04:52:31.418Z,15.57
2019-04-30T04:55:00.556Z,15.73
2019-04-30T04:57:30.342Z,16.15
2019-04-30T05:00:06.907Z,16.24
2019-04-30T05:02:34.759Z,16.70
2019-04-30T05:05:04.517Z,16.84
2019-04-30T05:07:33.257Z,17.24
2019-04-30T05:10:01.917Z,17.54
2019-04-30T05:12:30.588Z,17.31
2019-04-30T05:14:59.878Z,17.02
2019-04-30T05:17:31.684Z,17.17
2019-04-30T05:19:59.005Z,17.32
2019-04-30T05:22:29.343Z,17.48
2019-04-30T05:24:59.051Z,17.88
2019-04-30T05:27:27.861Z,17.49
2019-04-30T05:29:56.552Z,17.67
2019-04-30T05:32:25.203Z,17.65
2019-04-30T05:34:53.794Z,17.25
2019-04-30T05:37:22.638Z,16.92
2019-04-30T05:39:51.560Z,16.89
2019-04-30T05:42:20.233Z,17.42
2019-04-30T05:44:49.837Z,17.52
2019-04-30T05:47:19.635Z,17.11
2019-04-30T05:49:48.954Z,17.51
2019-04-30T05:52:19.940Z,17.50
2019-04-30T05:54:48.861Z,17.21
2019-04-30T05:57:19.730Z,16.80
2019-04-30T05:59:48.881Z,16.81
2019-04-30T06:02:19.312Z,16.76
2019-04-30T06:04:49.045Z,16.93
2019-04-30T06:07:18.851Z,17.00
2019-04-30T06:10:02.745Z,17.75
2019-04-30T06:12:39.317Z,17.68
2019-04-30T06:15:16.072Z,17.64
2019-04-30T06:18:00.050Z,17.06
2019-04-30T06:20:21.046Z,16.93
2019-04-30T06:22:52.387Z,17.15
2019-04-30T06:25:31.691Z,17.51
2019-04-30T06:27:52.435Z,17.93
2019-04-30T06:30:21.254Z,17.47
2019-04-30T06:32:50.025Z,17.64
2019-04-30T06:35:19.427Z,17.63
2019-04-30T06:37:48.922Z,17.39
2019-04-30T06:40:19.579Z,17.65
2019-04-30T06:42:49.639Z,17.70
2019-04-30T06:45:19.250Z,17.38
2019-04-30T06:47:49.131Z,17.54
2019-04-30T06:50:19.431Z,17.64
2019-04-30T06:52:56.679Z,17.59
2019-04-30T06:55:19.304Z,17.68
2019-04-30T06:57:49.710Z,17.65
2019-04-30T07:00:20.685Z,17.65
2019-04-30T07:02:49.554Z,17.61
2019-04-30T07:05:18.687Z,17.93
2019-04-30T07:07:53.292Z,17.68
2019-04-30T07:10:24.008Z,17.68
2019-04-30T07:12:54.304Z,17.53
2019-04-30T07:15:22.952Z,17.37
2019-04-30T07:17:51.709Z,17.96
2019-04-30T07:20:20.373Z,17.84
2019-04-30T07:22:53.933Z,18.11
2019-04-30T07:25:19.707Z,18.10
2019-04-30T07:27:50.579Z,18.76
2019-04-30T07:30:19.245Z,19.01
2019-04-30T07:32:48.805Z,19.01
2019-04-30T07:35:19.579Z,20.08
2019-04-30T07:37:49.696Z,19.92
2019-04-30T07:40:19.106Z,19.55
2019-04-30T07:42:49.259Z,19.45
2019-04-30T07:45:19.495Z,19.41
2019-04-30T07:47:49.545Z,18.48
2019-04-30T07:50:21.535Z,18.27
2019-04-30T07:53:01.742Z,18.12
2019-04-30T07:55:19.747Z,18.63
2019-04-30T07:57:50.563Z,18.10
2019-04-30T08:00:31.028Z,17.77
2019-04-30T08:03:00.342Z,17.84
2019-04-30T08:05:33.431Z,18.04
2019-04-30T08:08:20.655Z,18.03
2019-04-30T08:10:32.733Z,17.86
2019-04-30T08:13:10.072Z,18.78
2019-04-30T08:15:31.838Z,18.78
2019-04-30T08:18:05.471Z,18.74
2019-04-30T08:20:30.903Z,18.82
2019-04-30T08:23:13.000Z,18.82
2019-04-30T08:25:30.058Z,18.68
2019-04-30T08:27:59.178Z,18.66
2019-04-30T08:30:30.048Z,18.94
2019-04-30T08:32:59.594Z,18.36
2019-04-30T08:35:29.649Z,18.68
2019-04-30T08:37:59.044Z,18.71
2019-04-30T08:40:29.754Z,18.70
2019-04-30T08:42:59.487Z,18.75
2019-04-30T08:45:34.404Z,19.05
2019-04-30T08:48:01.254Z,18.90
2019-04-30T08:50:30.493Z,18.66
2019-04-30T08:53:00.171Z,18.87
2019-04-30T08:55:30.453Z,19.01
2019-04-30T08:58:09.659Z,19.19
2019-04-30T09:00:30.453Z,19.11
2019-04-30T09:02:59.441Z,19.22
2019-04-30T09:05:46.545Z,19.42
2019-04-30T09:08:12.387Z,19.70
2019-04-30T09:10:49.797Z,18.96
2019-04-30T09:13:19.192Z,19.69
2019-04-30T09:15:49.211Z,19.60
2019-04-30T09:18:19.077Z,19.61
2019-04-30T09:20:49.682Z,19.62
2019-04-30T09:23:21.225Z,20.35
2019-04-30T09:25:49.945Z,20.32
2019-04-30T09:28:19.997Z,18.86
2019-04-30T09:30:54.257Z,19.32
2019-04-30T09:33:23.076Z,20.85
2019-04-30T09:36:03.572Z,21.51
2019-04-30T09:38:44.220Z,21.86
2019-04-30T09:44:54.246Z,21.54
2019-04-30T09:47:22.102Z,20.79
2019-04-30T09:49:52.587Z,21.17
2019-04-30T09:52:30.852Z,20.15
2019-04-30T09:55:01.476Z,20.08
2019-04-30T09:57:30.557Z,18.75
2019-04-30T10:00:00.613Z,17.94
2019-04-30T10:02:29.596Z,17.41
2019-04-30T10:04:58.682Z,15.93
2019-04-30T10:07:29.356Z,15.93
2019-04-30T10:09:59.105Z,14.87
2019-04-30T10:12:29.505Z,14.48
2019-04-30T10:14:59.299Z,14.14
2019-04-30T10:17:38.847Z,13.63
2019-04-30T10:20:10.985Z,13.25
2019-04-30T10:22:40.116Z,14.14
2019-04-30T10:25:09.964Z,14.55
2019-04-30T10:27:38.908Z,15.08
2019-04-30T10:30:12.486Z,15.94
2019-04-30T10:32:41.191Z,15.93
2019-04-30T10:35:10.045Z,16.53
2019-04-30T10:37:42.138Z,16.16
2019-04-30T10:40:11.165Z,16.04
2019-04-30T10:42:39.901Z,16.00
2019-04-30T10:45:10.112Z,16.22
2019-04-30T10:47:39.329Z,16.46
2019-04-30T10:50:09.928Z,16.60
2019-04-30T10:52:39.374Z,16.32
2019-04-30T10:55:09.358Z,16.17
2019-04-30T10:57:39.701Z,16.05
2019-04-30T11:00:13.843Z,16.12
2019-04-30T11:02:43.699Z,16.18
2019-04-30T11:05:13.577Z,16.22
2019-04-30T11:07:42.317Z,16.03
2019-04-30T11:10:11.451Z,16.25
2019-04-30T11:12:40.080Z,16.34
2019-04-30T11:15:09.156Z,16.37
2019-04-30T11:17:39.705Z,16.82
2019-04-30T11:20:10.306Z,17.08
2019-04-30T11:22:39.502Z,16.87
2019-04-30T11:25:10.070Z,17.21
2019-04-30T11:27:41.761Z,17.44
2019-04-30T11:30:20.790Z,17.29
2019-04-30T11:32:40.778Z,17.35
2019-04-30T11:35:09.646Z,17.77
2019-04-30T11:37:38.358Z,18.23
2019-04-30T11:40:10.140Z,18.87
2019-04-30T11:42:38.814Z,19.01
2019-04-30T11:45:08.988Z,18.56
2019-04-30T11:47:39.034Z,18.83
2019-04-30T11:50:10.510Z,18.46
2019-04-30T11:52:39.176Z,18.43
2019-04-30T11:55:11.402Z,18.30
2019-04-30T11:57:40.232Z,18.17
2019-04-30T12:00:13.353Z,18.22
2019-04-30T12:02:43.069Z,18.48
2019-04-30T12:05:15.087Z,18.58
2019-04-30T12:07:45.416Z,19.18
2019-04-30T12:10:15.863Z,19.79
2019-04-30T12:12:44.605Z,20.41
2019-04-30T12:15:13.880Z,21.20
2019-04-30T12:17:43.849Z,20.76
2019-04-30T12:20:13.109Z,20.67
2019-04-30T12:22:44.817Z,21.08
2019-04-30T12:25:33.554Z,20.97
2019-04-30T12:27:55.107Z,20.26
2019-04-30T12:30:28.961Z,21.05
2019-04-30T12:32:59.062Z,20.46
2019-04-30T12:35:29.163Z,20.22
2019-04-30T12:37:58.844Z,20.30
2019-04-30T12:40:31.714Z,20.77
2019-04-30T12:42:59.915Z,21.26
2019-04-30T12:45:33.982Z,21.52
2019-04-30T12:48:10.014Z,21.19
2019-04-30T12:50:46.215Z,20.77
2019-04-30T12:53:19.234Z,19.81
2019-04-30T12:56:03.290Z,19.65
2019-04-30T12:58:40.507Z,19.46
2019-04-30T13:01:11.053Z,19.64
2019-04-30T13:03:39.992Z,19.82
2019-04-30T13:06:11.160Z,19.57
2019-04-30T13:08:39.859Z,19.33
2019-04-30T13:11:14.776Z,19.38
2019-04-30T13:13:44.869Z,19.35
2019-04-30T13:16:13.721Z,19.70
2019-04-30T13:18:42.404Z,20.11
2019-04-30T13:21:11.162Z,20.00
2019-04-30T13:23:39.807Z,20.26
2019-04-30T13:26:08.965Z,19.85
2019-04-30T13:28:58.387Z,20.17
2019-04-30T13:31:29.415Z,20.30
2019-04-30T13:34:01.619Z,20.62
2019-04-30T13:36:43.175Z,20.74
2019-04-30T13:39:19.582Z,20.61
2019-04-30T13:41:54.065Z,20.99
2019-04-30T13:44:24.384Z,21.08
2019-04-30T13:46:56.137Z,20.91
2019-04-30T13:49:24.822Z,20.99
2019-04-30T13:51:53.418Z,21.13
2019-04-30T13:54:25.426Z,20.97
2019-04-30T13:56:54.548Z,20.83
2019-04-30T13:59:23.184Z,20.75
2019-04-30T14:01:51.883Z,21.17
2019-04-30T14:04:31.229Z,21.50
2019-04-30T14:07:04.535Z,21.03
2019-04-30T14:09:34.923Z,20.58
2019-04-30T14:12:03.591Z,20.33
2019-04-30T14:14:32.256Z,20.48
2019-04-30T14:17:01.222Z,20.87
2019-04-30T14:19:30.366Z,20.91
2019-04-30T14:21:59.049Z,21.02
2019-04-30T14:24:27.762Z,21.10
2019-04-30T14:26:56.788Z,20.07
2019-04-30T14:29:25.470Z,19.19
2019-04-30T14:31:54.168Z,18.94
2019-04-30T14:34:22.950Z,18.71
2019-04-30T14:36:51.762Z,18.48
2019-04-30T14:39:20.539Z,18.37
2019-04-30T14:41:51.881Z,18.14
2019-04-30T14:44:26.053Z,18.08
2019-04-30T14:46:59.603Z,18.57
2019-04-30T14:49:33.922Z,19.31
2019-04-30T14:52:03.403Z,19.96
2019-04-30T14:54:45.783Z,20.17
2019-04-30T14:57:32.562Z,19.73
2019-04-30T15:00:05.694Z,19.36
2019-04-30T15:02:35.999Z,18.68
2019-04-30T15:05:08.805Z,18.58
2019-04-30T15:07:37.077Z,18.62
2019-04-30T15:10:07.122Z,18.62
2019-04-30T15:12:35.897Z,18.36
2019-04-30T15:15:05.963Z,18.29
2019-04-30T15:17:34.928Z,18.62
2019-04-30T15:20:04.341Z,18.58
2019-04-30T15:22:34.654Z,18.82
2019-04-30T15:25:03.800Z,19.04
2019-04-30T15:27:32.547Z,18.90
2019-04-30T15:30:01.261Z,19.20
2019-04-30T15:32:29.902Z,19.11
2019-04-30T15:34:58.998Z,18.86
2019-04-30T15:37:28.671Z,18.71
2019-04-30T15:39:59.130Z,18.92
2019-04-30T15:42:27.971Z,18.56
2019-04-30T15:44:56.731Z,18.72
2019-04-30T15:47:25.403Z,18.73
2019-04-30T15:49:54.119Z,19.14
2019-04-30T15:52:22.788Z,19.01
2019-04-30T15:54:51.649Z,19.03
2019-04-30T15:57:20.831Z,18.75
2019-04-30T15:59:49.543Z,18.66
2019-04-30T16:02:35.144Z,18.80
2019-04-30T16:05:15.819Z,18.78
2019-04-30T16:07:46.377Z,18.39
2019-04-30T16:10:24.394Z,18.24
2019-04-30T16:12:54.663Z,18.32
2019-04-30T16:15:32.725Z,17.98
2019-04-30T16:18:04.042Z,17.51
2019-04-30T16:20:32.688Z,17.33
2019-04-30T16:23:01.382Z,17.33
2019-04-30T16:25:30.397Z,17.28
2019-04-30T16:27:59.280Z,17.39
2019-04-30T16:30:28.917Z,17.55
2019-04-30T16:32:59.650Z,17.90
2019-04-30T16:35:37.319Z,17.92
2019-04-30T16:38:05.925Z,17.76
2019-04-30T16:40:34.612Z,17.58
2019-04-30T16:43:03.409Z,17.75
2019-04-30T16:45:32.158Z,17.85
2019-04-30T16:48:00.728Z,17.71
2019-04-30T16:50:29.939Z,17.69
2019-04-30T16:52:58.827Z,17.26
2019-04-30T16:55:27.546Z,17.23
2019-04-30T16:57:56.246Z,17.12
2019-04-30T17:00:24.965Z,16.84
2019-04-30T17:03:04.581Z,16.69
2019-04-30T17:05:35.268Z,16.65
2019-04-30T17:08:23.695Z,16.53
2019-04-30T17:10:56.954Z,16.14
2019-04-30T17:13:28.937Z,15.92
2019-04-30T17:16:10.983Z,15.92
2019-04-30T17:18:41.665Z,15.83
2019-04-30T17:21:09.870Z,15.80
2019-04-30T17:23:38.575Z,15.83
2019-04-30T17:26:07.304Z,15.40
2019-04-30T17:28:36.063Z,15.32
2019-04-30T17:31:04.750Z,15.23
2019-04-30T17:33:33.408Z,15.37
2019-04-30T17:36:02.089Z,15.12
2019-04-30T17:38:30.751Z,14.91
2019-04-30T17:40:59.484Z,14.85
2019-04-30T17:43:28.040Z,14.67
2019-04-30T17:45:56.707Z,14.54
2019-04-30T17:48:25.387Z,14.60
2019-04-30T17:50:54.046Z,14.42
2019-04-30T17:53:22.780Z,14.43
2019-04-30T17:55:51.393Z,14.35
2019-04-30T17:58:20.607Z,14.19
2019-04-30T18:00:51.112Z,14.17
2019-04-30T18:03:19.832Z,14.11
2019-04-30T18:05:49.180Z,13.96
2019-04-30T18:08:18.161Z,14.06
2019-04-30T18:10:46.960Z,14.00
2019-04-30T18:13:15.627Z,13.90
2019-04-30T18:15:44.296Z,13.70
2019-04-30T18:18:20.524Z,13.64
2019-04-30T18:20:50.829Z,13.62
2019-04-30T18:23:33.166Z,13.63
2019-04-30T18:26:06.408Z,13.58
2019-04-30T18:28:35.091Z,13.44
2019-04-30T18:31:03.844Z,13.33
2019-04-30T18:33:32.487Z,13.21
2019-04-30T18:36:01.177Z,13.03
2019-04-30T18:38:31.093Z,13.04
2019-04-30T18:41:00.296Z,13.21
2019-04-30T18:43:28.966Z,12.96
2019-04-30T18:45:57.913Z,12.89
2019-04-30T18:48:26.559Z,12.77
2019-04-30T18:50:55.316Z,12.87
2019-04-30T18:53:25.656Z,12.68
2019-04-30T18:55:54.305Z,12.59
2019-04-30T18:58:23.027Z,12.59
2019-04-30T19:00:51.802Z,12.70
2019-04-30T19:03:21.865Z,12.70
2019-04-30T19:05:52.313Z,12.78
2019-04-30T19:08:22.670Z,12.55
2019-04-30T19:10:53.048Z,12.44
2019-04-30T19:13:32.248Z,12.37
2019-04-30T19:16:25.344Z,12.49
2019-04-30T19:19:12.452Z,12.32
2019-04-30T19:21:41.231Z,12.22
2019-04-30T19:24:09.969Z,12.12
2019-04-30T19:26:38.907Z,12.13
2019-04-30T19:29:07.893Z,11.98
2019-04-30T19:31:36.975Z,11.93
2019-04-30T19:34:05.626Z,11.97
2019-04-30T19:36:37.558Z,12.03
2019-04-30T19:39:08.692Z,11.97
2019-04-30T19:41:38.640Z,11.92
2019-04-30T19:44:07.775Z,11.76
2019-04-30T19:46:36.460Z,11.64
2019-04-30T19:49:05.192Z,11.56
2019-04-30T19:51:33.826Z,11.57
2019-04-30T19:54:02.446Z,11.45
2019-04-30T19:56:32.827Z,11.70
2019-04-30T19:59:05.223Z,11.54
2019-04-30T20:01:32.056Z,11.52
2019-04-30T20:04:03.368Z,11.48
2019-04-30T20:06:32.260Z,11.37
2019-04-30T20:09:00.994Z,11.31
2019-04-30T20:11:29.660Z,11.31
2019-04-30T20:13:58.305Z,11.32
2019-04-30T20:16:27.198Z,11.33
2019-04-30T20:18:55.862Z,11.35
2019-04-30T20:21:28.884Z,11.59
2019-04-30T20:23:55.703Z,11.56
2019-04-30T20:26:24.377Z,11.61
2019-04-30T20:28:53.123Z,11.43
2019-04-30T20:31:21.795Z,11.25
2019-04-30T20:33:50.518Z,11.11
2019-04-30T20:36:19.202Z,11.06
2019-04-30T20:38:55.474Z,11.00
2019-04-30T20:41:25.781Z,11.37
2019-04-30T20:43:54.443Z,11.24
2019-04-30T20:46:31.464Z,10.92
2019-04-30T20:48:53.572Z,10.97
2019-04-30T20:51:22.218Z,10.93
2019-04-30T20:53:50.876Z,10.81
2019-04-30T20:56:19.834Z,10.88
2019-04-30T20:58:57.199Z,10.90
2019-04-30T21:01:19.365Z,11.02
2019-04-30T21:03:48.468Z,10.93
2019-04-30T21:06:22.189Z,11.22
2019-04-30T21:08:50.832Z,11.43
2019-04-30T21:11:19.535Z,11.57
2019-04-30T21:13:49.110Z,11.55
2019-04-30T21:16:17.928Z,11.30
2019-04-30T21:18:46.570Z,10.93
2019-04-30T21:21:15.291Z,10.47
2019-04-30T21:23:43.879Z,10.34
2019-04-30T21:26:12.541Z,10.34
2019-04-30T21:28:41.311Z,10.18
2019-04-30T21:31:28.099Z,10.24
2019-04-30T21:34:00.299Z,10.35
2019-04-30T21:36:28.811Z,10.41
2019-04-30T21:38:59.062Z,10.47
2019-04-30T21:41:29.650Z,10.41
2019-04-30T21:43:58.290Z,10.23
2019-04-30T21:46:29.108Z,10.01
2019-04-30T21:48:58.703Z,10.28
2019-04-30T21:51:27.467Z,10.33
2019-04-30T21:53:56.156Z,10.37
2019-04-30T21:56:24.811Z,10.44
2019-04-30T21:58:53.468Z,10.64
2019-04-30T22:01:24.985Z,10.48
2019-04-30T22:03:53.636Z,10.51
2019-04-30T22:06:22.272Z,11.07
2019-04-30T22:08:51.060Z,10.48
2019-04-30T22:11:19.995Z,10.54
2019-04-30T22:13:49.399Z,10.61
2019-04-30T22:16:20.179Z,10.18
2019-04-30T22:18:49.006Z,10.29
2019-04-30T22:21:17.692Z,10.49
2019-04-30T22:23:46.408Z,10.40
2019-04-30T22:26:15.081Z,10.10
2019-04-30T22:28:43.797Z,9.57
2019-04-30T22:31:12.485Z,9.39
2019-04-30T22:33:41.141Z,9.65
2019-04-30T22:36:18.875Z,9.40
2019-04-30T22:38:52.292Z,9.47
2019-04-30T22:41:22.634Z,9.36
2019-04-30T22:43:51.290Z,9.20
2019-04-30T22:46:19.975Z,9.31
2019-04-30T22:48:48.674Z,9.04
2019-04-30T22:51:17.333Z,9.15
2019-04-30T22:53:45.903Z,9.08
2019-04-30T22:56:14.765Z,8.91
2019-04-30T22:58:43.358Z,8.87
2019-04-30T23:01:30.092Z,8.83
2019-04-30T23:04:00.381Z,8.83
2019-04-30T23:06:30.363Z,9.04
2019-04-30T23:08:59.163Z,9.07
2019-04-30T23:11:27.886Z,9.14
2019-04-30T23:13:56.555Z,9.11
2019-04-30T23:16:25.236Z,9.09
2019-04-30T23:18:53.872Z,8.88
2019-04-30T23:21:22.598Z,8.52
2019-04-30T23:23:51.237Z,8.84
2019-04-30T23:26:19.929Z,8.88
2019-04-30T23:28:48.654Z,8.84
2019-04-30T23:31:17.357Z,8.67
2019-04-30T23:33:45.918Z,8.82
2019-04-30T23:36:14.621Z,8.92
2019-04-30T23:38:43.320Z,8.60
2019-04-30T23:41:11.963Z,8.87
2019-04-30T23:43:40.610Z,9.22
2019-04-30T23:46:09.374Z,9.33
2019-04-30T23:48:38.030Z,9.37
2019-04-30T23:51:06.675Z,9.12
2019-04-30T23:53:35.379Z,8.81
2019-04-30T23:56:04.049Z,8.88
2019-04-30T23:58:32.637Z,8.81
